Time;durP1;ratioP1;P1;durP2;ratioP2;P2;SDS_P1;SDS_P2;PMS_P1;PMS_P2;Temp;Humidity;BMP_temperature;BMP_pressure;BME280_temperature;BME280_humidity;BME280_pressure;Samples;Min_cycle;Max_cycle;Signal;HPM_P1;HPM_P2
2022/02/02 00:01:24;;;;;;;25.23;5.07;;;5.20;99.90;;;5.25;80.54;99425.84;4974495;28;20183;-70
2022/02/02 00:03:55;;;;;;;17.45;4.05;;;5.20;99.90;;;5.22;80.68;99426.28;4974424;28;20192;-69
2022/02/02 00:06:29;;;;;;;21.13;4.80;;;5.20;99.90;;;5.22;81.26;99431.63;4974626;28;20664;-70
2022/02/02 00:09:01;;;;;;;23.77;4.70;;;5.20;99.90;;;5.24;80.89;99411.59;4974686;28;20562;-70
2022/02/02 00:14:28;;;;;;;15.07;5.90;;;5.20;99.90;;;5.26;81.03;99422.16;4974678;28;20179;-70
2022/02/02 00:17:01;;;;;;;34.60;6.45;;;5.20;99.90;;;5.32;80.98;99429.38;4974692;28;20199;-69
2022/02/02 00:19:40;;;;;;;20.15;5.80;;;5.20;99.90;;;5.27;80.64;99431.84;4974625;28;20190;-70
2022/02/02 00:22:15;;;;;;;26.50;6.45;;;5.20;99.90;;;5.33;80.73;99431.00;4974545;28;20179;-70
2022/02/02 00:25:01;;;;;;;21.92;5.60;;;5.20;99.90;;;5.36;80.29;99438.66;4974565;28;20242;-69
2022/02/02 00:27:30;;;;;;;18.75;4.60;;;5.30;99.90;;;5.37;79.34;99432.28;4974465;28;20258;-69
2022/02/02 00:30:03;;;;;;;16.17;5.35;;;5.30;99.90;;;5.35;79.43;99439.69;4974408;28;20182;-70
2022/02/02 00:32:53;;;;;;;18.15;5.10;;;5.30;99.90;;;5.36;80.00;99433.31;4974552;28;20256;-69
2022/02/02 00:35:26;;;;;;;19.23;4.32;;;5.30;99.90;;;5.33;79.75;99428.31;4974628;28;20207;-70
2022/02/02 00:37:55;;;;;;;18.63;4.90;;;5.30;99.90;;;5.36;79.54;99419.91;4974248;28;20211;-70
2022/02/02 00:40:23;;;;;;;25.50;6.25;;;5.30;99.90;;;5.37;78.90;99418.88;4974115;28;20258;-70
2022/02/02 00:42:52;;;;;;;12.60;5.13;;;5.30;1.00;;;5.38;78.94;99414.31;4974175;28;20177;-70
2022/02/02 00:45:27;;;;;;;36.42;4.55;;;5.30;99.90;;;5.41;78.55;99425.47;4974200;28;20195;-70
2022/02/02 00:47:55;;;;;;;25.25;6.03;;;5.30;99.90;;;5.42;78.27;99418.25;4973988;28;20215;-69
2022/02/02 00:50:26;;;;;;;19.80;5.07;;;5.30;99.90;;;5.43;78.58;99426.06;4974381;28;20656;-70
2022/02/02 00:52:56;;;;;;;16.85;4.53;;;5.30;1.00;;;5.43;77.51;99422.56;4975994;28;20184;-69
2022/02/02 00:55:25;;;;;;;21.30;5.53;;;5.30;1.00;;;5.44;77.27;99429.59;4977751;28;20180;-69
2022/02/02 00:57:53;;;;;;;16.85;5.85;;;5.30;99.90;;;5.49;76.74;99427.94;4977899;28;20670;-69
2022/02/02 01:00:23;;;;;;;9.00;4.13;;;5.40;99.90;;;5.51;76.34;99447.38;4978183;28;20184;-70
2022/02/02 01:02:51;;;;;;;19.67;4.72;;;5.40;99.90;;;5.55;76.60;99429.00;4977765;28;20183;-70
2022/02/02 01:05:20;;;;;;;19.17;4.55;;;5.40;1.00;;;5.60;76.14;99450.66;4977908;28;20222;-70
2022/02/02 01:10:36;;;;;;;18.90;4.95;;;5.50;1.00;;;5.56;75.70;99455.63;4995305;28;20206;-70
2022/02/02 01:13:20;;;;;;;25.85;4.82;;;5.50;1.00;;;5.59;75.00;99441.78;4996257;28;20192;-70
2022/02/02 01:19:00;;;;;;;21.05;5.45;;;5.50;99.90;;;5.62;74.91;99449.41;4996640;28;20209;-69
2022/02/02 01:21:42;;;;;;;15.70;5.03;;;5.50;99.90;;;5.64;74.56;99476.06;4996579;28;20648;-69
2022/02/02 01:29:43;;;;;;;18.77;5.38;;;5.60;99.90;;;5.67;74.25;99471.09;4997039;28;20189;-70
2022/02/02 01:32:13;;;;;;;12.25;3.08;;;5.60;99.90;;;5.66;73.96;99480.19;4996496;28;20179;-70
2022/02/02 01:34:41;;;;;;;12.23;4.90;;;5.60;99.90;;;5.68;73.49;99453.97;4996395;28;20629;-69
2022/02/02 01:37:10;;;;;;;22.73;6.03;;;5.60;99.90;;;5.69;74.31;99466.38;4996144;28;20199;-70
2022/02/02 01:39:39;;;;;;;21.15;5.68;;;5.60;99.90;;;5.69;73.92;99466.38;4996870;28;20233;-70
2022/02/02 01:42:13;;;;;;;21.63;6.03;;;5.60;99.90;;;5.73;74.09;99471.31;4996360;28;20186;-70
2022/02/02 01:44:48;;;;;;;30.40;6.90;;;5.70;99.90;;;5.71;73.67;99473.38;4996221;28;20198;-70
2022/02/02 01:47:18;;;;;;;15.55;3.90;;;5.60;99.90;;;5.71;73.64;99468.03;4996124;28;20206;-70
2022/02/02 01:50:12;;;;;;;24.67;4.85;;;5.70;99.90;;;5.67;73.97;99481.84;4995852;28;20171;-69
2022/02/02 01:53:00;;;;;;;32.67;6.63;;;5.60;99.90;;;5.67;73.72;99481.84;4995863;28;20194;-70
2022/02/02 01:55:31;;;;;;;24.88;5.20;;;5.60;99.90;;;5.67;73.70;99473.78;4995892;28;20183;-70
2022/02/02 01:58:07;;;;;;;24.60;3.47;;;5.60;99.90;;;5.67;73.63;99465.72;4996035;28;20629;-70
2022/02/02 02:00:36;;;;;;;19.85;4.70;;;5.60;99.90;;;5.66;74.04;99469.44;4996032;28;20594;-70
2022/02/02 02:03:06;;;;;;;12.38;5.18;;;5.60;99.90;;;5.63;73.83;99464.50;4995631;28;20186;-70
2022/02/02 02:05:34;;;;;;;18.40;6.95;;;5.60;99.90;;;5.62;74.03;99465.53;4995080;28;20187;-70
2022/02/02 02:08:02;;;;;;;31.75;6.82;;;5.60;99.90;;;5.67;74.26;99481.84;4995579;28;20632;-69
2022/02/02 02:10:31;;;;;;;17.55;4.88;;;5.60;99.90;;;5.72;74.18;99480.38;4995727;28;20731;-70
2022/02/02 02:13:04;;;;;;;12.43;5.05;;;5.60;99.90;;;5.66;73.84;99493.59;4995738;28;20278;-70
2022/02/02 02:15:33;;;;;;;20.83;5.47;;;5.60;99.90;;;5.72;73.51;99480.38;4995466;28;20199;-70
2022/02/02 02:18:02;;;;;;;21.63;5.65;;;5.60;99.90;;;5.72;73.83;99480.38;4995348;28;20229;-70
2022/02/02 02:20:32;;;;;;;13.35;3.20;;;5.60;99.90;;;5.69;73.86;99487.00;4995531;28;20183;-69
2022/02/02 02:23:02;;;;;;;22.50;4.07;;;5.60;99.90;;;5.66;74.32;99493.59;4995456;28;20175;-69
2022/02/02 02:25:33;;;;;;;19.77;5.28;;;5.60;99.90;;;5.66;74.68;99485.53;4995588;28;20222;-70
2022/02/02 02:28:06;;;;;;;10.02;3.08;;;5.60;99.90;;;5.63;74.45;99498.56;4995098;28;20207;-70
2022/02/02 02:30:45;;;;;;;18.65;2.83;;;5.60;99.90;;;5.64;75.21;99495.69;4995348;28;20190;-70
2022/02/02 02:36:33;;;;;;;20.75;4.90;;;5.50;99.90;;;5.46;76.04;99510.72;4994895;28;20207;-70
2022/02/02 02:39:32;;;;;;;20.90;3.22;;;5.40;99.90;;;5.44;76.64;99516.25;4994747;28;20225;-71
2022/02/02 02:55:57;;;;;;;10.85;3.75;;;5.40;99.90;;;5.42;76.48;99517.50;4994575;28;20179;-71
2022/02/02 02:58:47;;;;;;;6.57;2.85;;;5.40;99.90;;;5.41;76.82;99527.41;4994962;28;20639;-70
2022/02/02 03:01:49;;;;;;;8.20;3.60;;;5.40;99.90;;;5.42;76.33;99529.03;4934687;29;20224;-70
2022/02/02 03:32:38;;;;;;;15.15;4.22;;;5.50;99.90;;;5.52;75.53;99532.16;4952314;28;20765;-70
2022/02/02 03:35:14;;;;;;;27.90;6.95;;;5.40;99.90;;;5.51;75.79;99533.22;4973287;28;20611;-70
2022/02/02 03:51:43;;;;;;;32.85;5.75;;;5.40;99.90;;;5.46;76.35;99537.53;4974461;28;20554;-69
2022/02/02 03:57:25;;;;;;;12.52;5.45;;;5.40;99.90;;;5.41;75.79;99550.72;4961047;28;20219;-70
2022/02/02 04:00:18;;;;;;;21.33;5.05;;;5.40;99.90;;;5.41;75.71;99548.88;4974935;28;20179;-71
2022/02/02 04:03:11;;;;;;;37.35;6.63;;;5.30;99.90;;;5.44;76.20;99558.34;4974533;28;20271;-71
2022/02/02 04:05:41;;;;;;;24.85;7.80;;;5.30;99.90;;;5.44;75.98;99564.56;4974687;28;20176;-70
2022/02/02 04:08:27;;;;;;;28.90;7.57;;;5.40;99.90;;;5.45;75.63;99566.22;4974119;28;20684;-70
2022/02/02 04:10:57;;;;;;;34.90;8.38;;;5.40;99.90;;;5.51;75.74;99568.09;4974086;28;20206;-70
2022/02/02 04:13:51;;;;;;;18.38;6.10;;;5.40;99.90;;;5.51;75.61;99570.78;4974127;28;20180;-70
2022/02/02 04:39:07;;;;;;;20.08;5.07;;;5.50;99.90;;;5.65;73.88;99568.97;4988216;28;20227;-70
2022/02/02 04:55:36;;;;;;;19.63;4.80;;;5.60;99.90;;;5.67;71.12;99575.75;4975588;28;20270;-70
2022/02/02 04:58:19;;;;;;;15.50;6.07;;;5.60;99.90;;;5.74;70.15;99580.34;4973422;28;20581;-70
2022/02/02 05:01:44;;;;;;;12.20;4.55;;;5.60;99.90;;;5.76;69.56;99589.03;4956341;28;20195;-71
2022/02/02 05:04:19;;;;;;;16.13;4.65;;;5.60;99.90;;;5.80;68.85;99580.34;4973616;28;20199;-71
2022/02/02 05:06:53;;;;;;;14.90;4.07;;;5.70;99.90;;;5.79;68.94;99588.59;4996379;28;20199;-70
2022/02/02 05:09:36;;;;;;;34.58;4.60;;;5.70;99.90;;;5.82;68.99;99602.44;4991982;28;20197;-70
2022/02/02 05:17:54;;;;;;;28.38;7.30;;;5.80;99.90;;;5.86;70.01;99617.09;4972050;28;20238;-70
2022/02/02 05:21:07;;;;;;;12.45;4.30;;;5.80;99.90;;;5.80;69.50;99617.09;4972231;28;20203;-70
2022/02/02 05:43:37;;;;;;;24.60;5.75;;;5.60;99.90;;;5.80;69.79;99657.38;4880664;29;20835;-73
2022/02/02 05:48:51;;;;;;;22.00;5.60;;;5.60;99.90;;;5.75;69.33;99689.38;4888940;29;20210;-75
2022/02/02 05:51:29;;;;;;;13.40;3.97;;;5.60;99.90;;;5.73;68.81;99688.72;4899869;29;20190;-72
2022/02/02 05:53:57;;;;;;;20.33;5.80;;;5.60;99.90;;;5.76;69.14;99693.72;4913851;29;20250;-74
2022/02/02 05:56:28;;;;;;;13.30;4.45;;;5.70;99.90;;;5.74;68.88;99704.63;4899452;29;20194;-74
2022/02/02 05:59:00;;;;;;;22.25;6.20;;;5.70;99.90;;;5.63;69.07;99697.13;4901922;29;20323;-73
2022/02/02 06:01:29;;;;;;;25.00;6.18;;;5.60;99.90;;;5.67;69.32;99706.44;4904331;29;20178;-77
2022/02/02 06:04:01;;;;;;;20.67;5.03;;;5.60;99.90;;;5.65;69.24;99711.19;4900402;29;20714;-74
2022/02/02 06:06:31;;;;;;;8.05;3.28;;;5.60;99.90;;;5.58;69.68;99711.16;4900855;29;20465;-73
2022/02/02 06:09:01;;;;;;;17.13;3.75;;;5.50;99.90;;;5.50;69.75;99708.66;4901562;29;20213;-74
2022/02/02 06:11:30;;;;;;;13.40;4.10;;;5.50;99.90;;;5.48;70.37;99705.31;4912498;29;20194;-74
2022/02/02 06:14:00;;;;;;;19.02;4.55;;;5.40;99.90;;;5.41;70.39;99704.47;4902045;29;20262;-74
2022/02/02 06:16:30;;;;;;;11.77;4.53;;;5.40;99.90;;;5.35;70.91;99715.16;4903089;29;20575;-73
2022/02/02 06:19:01;;;;;;;14.50;4.25;;;5.30;99.90;;;5.32;70.94;99710.19;4901034;29;20218;-75
2022/02/02 06:21:32;;;;;;;9.68;3.25;;;5.30;99.90;;;5.33;70.99;99718.03;4899169;29;20320;-75
2022/02/02 06:24:10;;;;;;;10.65;3.05;;;5.30;99.90;;;5.35;71.23;99726.72;4899438;29;20565;-74
2022/02/02 06:26:41;;;;;;;11.57;3.30;;;5.30;99.90;;;5.34;70.81;99714.31;4898825;29;20208;-73
2022/02/02 06:29:13;;;;;;;26.60;4.82;;;5.30;99.90;;;5.38;71.22;99722.78;4900142;29;20285;-75
2022/02/02 06:31:43;;;;;;;27.05;4.30;;;5.30;99.90;;;5.40;71.50;99718.91;4899488;29;20664;-74
2022/02/02 06:34:15;;;;;;;13.73;4.70;;;5.30;99.90;;;5.37;70.81;99721.16;4898963;29;20302;-74
2022/02/02 06:36:43;;;;;;;19.55;4.03;;;5.30;99.90;;;5.38;70.94;99730.84;4899949;29;20194;-74
2022/02/02 06:39:13;;;;;;;14.98;4.75;;;5.30;99.90;;;5.42;70.88;99726.75;4898983;29;20225;-74
2022/02/02 06:41:41;;;;;;;13.80;2.92;;;5.30;99.90;;;5.47;70.53;99749.28;4898753;29;20193;-73
2022/02/02 06:44:11;;;;;;;12.30;4.45;;;5.40;99.90;;;5.53;70.17;99771.81;4899719;29;20197;-73
2022/02/02 06:46:40;;;;;;;15.13;2.90;;;5.40;99.90;;;5.54;69.90;99763.56;4907653;29;20202;-74
2022/02/02 06:49:18;;;;;;;12.38;3.03;;;5.40;99.90;;;5.58;69.70;99762.16;4905466;29;20261;-72
2022/02/02 06:51:58;;;;;;;23.42;4.72;;;5.50;99.90;;;5.56;69.78;99772.25;4904567;29;20602;-76
2022/02/02 06:54:47;;;;;;;21.35;5.15;;;5.50;99.90;;;5.61;69.43;99774.34;4898886;29;20651;-75
2022/02/02 06:57:33;;;;;;;12.52;4.97;;;5.50;99.90;;;5.70;69.47;99794.63;4898625;29;20208;-74
2022/02/02 07:00:15;;;;;;;10.73;3.28;;;5.60;99.90;;;5.69;68.92;99771.50;4912542;29;20202;-75
2022/02/02 07:02:55;;;;;;;17.33;5.10;;;5.60;99.90;;;5.67;68.83;99777.06;4898824;29;20200;-73
2022/02/02 07:05:32;;;;;;;15.75;3.20;;;5.70;99.90;;;5.75;68.50;99788.69;4898555;29;20186;-75
2022/02/02 07:08:33;;;;;;;17.95;4.15;;;5.70;99.90;;;5.75;68.82;99797.56;4899155;29;20631;-75
2022/02/02 07:11:12;;;;;;;6.57;2.90;;;5.70;99.90;;;5.74;68.76;99784.34;4899580;29;20182;-75
2022/02/02 07:13:54;;;;;;;19.23;5.55;;;5.70;99.90;;;5.83;69.09;99804.63;4897821;29;20220;-75
2022/02/02 07:16:37;;;;;;;20.15;3.33;;;5.70;99.90;;;5.82;68.37;99793.03;4898999;29;20182;-76
2022/02/02 07:19:17;;;;;;;18.40;4.10;;;5.80;99.90;;;5.80;68.64;99810.38;4898069;29;20270;-73
2022/02/02 07:22:13;;;;;;;10.80;3.75;;;5.70;99.90;;;5.85;68.47;99802.56;4897628;29;20234;-73
2022/02/02 07:30:31;;;;;;;17.23;5.68;;;5.80;99.90;;;5.88;68.48;99823.69;4898283;29;20194;-74
2022/02/02 07:33:10;;;;;;;19.55;4.68;;;5.80;99.90;;;5.91;68.41;99823.28;4898186;29;20552;-73
2022/02/02 07:35:53;;;;;;;20.10;4.50;;;5.80;99.90;;;5.92;68.22;99819.56;4898241;29;20190;-72
2022/02/02 07:38:27;;;;;;;16.60;4.50;;;5.90;99.90;;;5.96;68.72;99818.13;4897708;29;20218;-74
2022/02/02 07:41:07;;;;;;;24.58;6.72;;;5.90;99.90;;;5.93;68.67;99827.44;4898097;29;20198;-74
2022/02/02 07:43:41;;;;;;;14.73;4.97;;;5.90;99.90;;;5.91;68.69;99834.00;4897790;29;20220;-72
2022/02/02 07:46:10;;;;;;;11.50;3.83;;;5.80;99.90;;;5.91;68.63;99831.31;4897648;29;20181;-73
2022/02/02 07:48:42;;;;;;;11.73;3.95;;;5.80;99.90;;;5.92;68.41;99825.75;4898526;29;20750;-74
2022/02/02 07:51:14;;;;;;;11.40;6.28;;;5.80;99.90;;;5.93;67.98;99835.47;4898424;29;20576;-73
2022/02/02 07:53:46;;;;;;;7.22;2.13;;;5.80;99.90;;;5.94;67.58;99850.56;4898874;29;20238;-73
2022/02/02 07:56:40;;;;;;;44.45;9.43;;;5.90;99.90;;;5.97;68.64;99862.75;4896346;29;20205;-74
2022/02/02 07:59:18;;;;;;;15.32;3.63;;;5.90;99.90;;;6.05;67.94;99878.75;4897861;29;20209;-74
2022/02/02 08:01:48;;;;;;;15.63;3.90;;;5.90;99.90;;;5.98;69.37;99888.59;4897353;29;20206;-72
2022/02/02 08:04:21;;;;;;;13.23;3.70;;;5.90;99.90;;;5.63;70.74;99883.16;4898541;29;20186;-73
2022/02/02 08:06:53;;;;;;;14.75;4.88;;;5.70;99.90;;;5.49;72.20;99889.44;4897983;29;20175;-73
2022/02/02 08:09:32;;;;;;;16.88;5.07;;;5.50;99.90;;;5.48;72.42;99903.88;4898146;29;20703;-72
2022/02/02 08:12:03;;;;;;;23.65;5.68;;;5.40;99.90;;;5.56;72.70;99901.06;4898366;29;20268;-74
2022/02/02 08:14:35;;;;;;;8.48;3.40;;;5.40;99.90;;;5.64;71.15;99914.34;4901076;29;20197;-76
2022/02/02 08:17:04;;;;;;;16.75;4.18;;;5.50;99.90;;;5.71;72.32;99908.22;4913257;29;20272;-74
2022/02/02 08:19:36;;;;;;;13.88;4.43;;;5.60;99.90;;;5.73;72.06;99911.50;4916421;29;20256;-74
2022/02/02 08:22:04;;;;;;;9.65;3.05;;;5.60;99.90;;;5.71;70.99;99921.63;4917127;29;20635;-75
2022/02/02 08:24:33;;;;;;;9.25;3.67;;;5.60;99.90;;;5.57;71.68;99929.53;4921477;29;20189;-75
2022/02/02 08:27:02;;;;;;;7.03;2.47;;;5.50;99.90;;;5.53;71.29;99939.00;4917571;29;20249;-75
2022/02/02 08:29:31;;;;;;;7.97;2.60;;;5.50;99.90;;;5.39;72.68;99939.91;4916240;29;20241;-75
2022/02/02 08:32:02;;;;;;;9.30;2.83;;;5.40;99.90;;;5.18;74.59;99950.66;4915427;29;20612;-74
2022/02/02 08:34:30;;;;;;;8.73;3.85;;;5.20;99.90;;;5.08;75.66;99934.84;4915963;29;20196;-74
2022/02/02 08:37:00;;;;;;;7.93;3.20;;;5.10;99.90;;;4.57;77.48;99947.44;4916258;29;20615;-70
2022/02/02 08:39:45;;;;;;;7.22;3.55;;;4.70;99.90;;;4.29;77.28;99954.47;4916022;29;20694;-75
2022/02/02 08:42:15;;;;;;;10.93;2.70;;;4.40;99.90;;;4.20;78.71;99977.84;4916817;29;20189;-72
2022/02/02 08:44:51;;;;;;;12.55;2.85;;;4.30;99.90;;;4.20;79.14;99967.13;4916205;29;20244;-72
2022/02/02 08:47:23;;;;;;;9.32;4.85;;;4.20;99.90;;;4.24;79.76;99980.97;4921099;29;20182;-73
2022/02/02 08:49:55;;;;;;;9.98;3.50;;;4.20;99.90;;;4.31;79.88;99992.59;4921732;29;20304;-73
2022/02/02 08:52:34;;;;;;;14.50;3.70;;;4.30;99.90;;;4.26;80.23;99990.47;4918267;29;20213;-73
2022/02/02 08:55:46;;;;;;;18.17;2.97;;;4.30;99.90;;;4.28;80.92;99992.97;4925643;29;20604;-73
2022/02/02 08:58:21;;;;;;;9.25;2.90;;;4.30;99.90;;;4.30;80.92;99994.47;4922021;29;20232;-73
2022/02/02 09:00:53;;;;;;;17.17;4.03;;;4.30;99.90;;;4.30;81.55;99996.31;4922957;29;20225;-73
2022/02/02 09:06:08;;;;;;;12.00;3.08;;;4.30;99.90;;;4.49;79.35;100003.81;4924602;29;20221;-67
2022/02/02 09:08:40;;;;;;;5.88;2.60;;;4.40;99.90;;;4.48;78.91;100007.50;4921596;29;20222;-72
2022/02/02 09:25:34;;;;;;;9.35;2.80;;;4.80;99.90;;;5.05;76.08;100044.34;5148085;27;20569;-72
2022/02/02 09:36:27;;;;;;;5.78;2.00;;;5.30;99.90;;;5.46;72.21;100074.97;5366550;22;21505;31
2022/02/02 09:39:00;;;;;;;10.00;1.88;;;5.40;99.90;;;5.56;70.15;100061.25;5048494;28;20205;-68
2022/02/02 09:41:40;;;;;;;10.48;2.35;;;5.50;99.90;;;5.55;69.86;100073.00;5050506;28;20177;-67
2022/02/02 09:44:12;;;;;;;16.33;3.30;;;5.50;99.90;;;5.56;69.22;100080.03;5050393;28;20284;-69
2022/02/02 09:46:50;;;;;;;7.97;1.73;;;5.50;99.90;;;5.61;69.01;100093.72;5052274;28;20219;-68
2022/02/02 09:49:25;;;;;;;13.93;3.05;;;5.60;99.90;;;5.62;69.17;100077.41;5050363;28;20173;-68
2022/02/02 09:51:59;;;;;;;7.93;3.00;;;5.60;99.90;;;5.65;69.81;100081.59;5050305;28;20173;-69
2022/02/02 09:54:34;;;;;;;7.80;1.98;;;5.60;99.90;;;5.55;69.33;100102.53;5050187;28;20176;-68
2022/02/02 10:00:40;;;;;;;9.95;2.28;;;5.50;99.90;;;5.41;71.45;100109.59;5049601;28;20189;-68
2022/02/02 10:06:16;;;;;;;8.27;2.65;;;5.50;99.90;;;5.63;68.56;100130.09;5046287;28;20665;-70
2022/02/02 10:11:54;;;;;;;11.00;4.15;;;5.70;99.90;;;5.93;68.55;100138.09;5049378;28;20180;-69
2022/02/02 10:14:39;;;;;;;8.18;2.80;;;5.80;99.90;;;6.08;67.26;100144.25;5049678;28;20196;-69
2022/02/02 10:17:12;;;;;;;5.20;2.40;;;6.00;99.90;;;6.01;67.63;100146.00;5049757;28;20217;-69
2022/02/02 10:19:40;;;;;;;6.85;2.67;;;6.00;99.90;;;6.00;68.69;100136.31;5049578;28;20169;-70
2022/02/02 10:22:23;;;;;;;10.45;3.00;;;6.00;99.90;;;5.91;68.80;100142.81;5050502;28;20657;-70
2022/02/02 10:25:00;;;;;;;15.90;2.60;;;5.90;99.90;;;5.79;68.17;100146.97;5051200;28;20228;-70
2022/02/02 10:27:34;;;;;;;12.70;1.98;;;5.80;99.90;;;5.73;67.14;100148.56;5049431;28;20216;-70
2022/02/02 10:30:20;;;;;;;10.20;2.83;;;5.70;99.90;;;5.68;68.20;100156.34;5049226;28;20211;-70
2022/02/02 10:32:51;;;;;;;7.20;2.65;;;5.70;99.90;;;5.72;67.30;100167.53;5049016;28;20287;-70
2022/02/02 10:35:33;;;;;;;11.75;3.78;;;5.70;99.90;;;5.87;68.37;100163.00;5043560;28;20231;-69
2022/02/02 10:38:26;;;;;;;13.00;5.03;;;5.80;99.90;;;5.91;67.87;100178.53;5035830;28;20235;-71
2022/02/02 10:41:06;;;;;;;5.80;2.28;;;5.90;99.90;;;5.96;67.48;100183.34;5035769;28;20189;-70
2022/02/02 10:43:42;;;;;;;10.93;2.63;;;6.00;99.90;;;5.86;66.93;100178.25;5035408;28;20183;-70
2022/02/02 10:46:17;;;;;;;13.25;4.50;;;5.90;99.90;;;5.91;68.47;100172.34;5035306;28;20169;-71
2022/02/02 10:48:50;;;;;;;6.80;1.73;;;5.90;99.90;;;6.02;66.26;100185.28;5035384;28;20185;-70
2022/02/02 10:51:33;;;;;;;5.35;2.42;;;5.90;99.30;;;5.96;67.03;100183.34;5035497;28;20252;-69
2022/02/02 10:54:16;;;;;;;5.55;1.67;;;6.00;99.90;;;6.01;66.68;100186.28;5035798;28;20198;-70
2022/02/02 10:56:51;;;;;;;6.90;2.35;;;6.00;98.90;;;6.01;66.70;100187.13;5035527;28;20209;-69
2022/02/02 10:59:29;;;;;;;8.65;2.92;;;6.00;99.80;;;6.03;65.14;100189.63;5035330;28;20180;-69
2022/02/02 11:07:35;;;;;;;9.60;2.85;;;6.00;89.60;;;6.09;65.12;100203.16;5035124;28;20213;-70
2022/02/02 11:10:05;;;;;;;6.25;2.08;;;6.10;91.70;;;6.11;64.11;100202.94;5035321;28;20178;-70
2022/02/02 11:12:38;;;;;;;9.52;1.95;;;6.10;86.20;;;6.11;63.90;100208.31;5035049;28;20181;-70
2022/02/02 11:15:24;;;;;;;9.38;2.63;;;6.10;83.30;;;6.17;64.10;100204.88;5036033;28;20561;-70
2022/02/02 11:18:06;;;;;;;5.22;1.70;;;6.10;83.20;;;6.20;62.91;100212.53;5035002;28;20209;-70
2022/02/02 11:20:41;;;;;;;6.05;2.00;;;6.20;70.20;;;6.15;62.16;100225.72;5035539;28;20712;-70
2022/02/02 11:23:10;;;;;;;12.30;2.08;;;6.20;60.00;;;6.24;62.20;100237.19;5034820;28;20174;-70
2022/02/02 11:25:42;;;;;;;6.40;2.75;;;6.20;60.90;;;6.30;62.64;100248.00;5034728;28;20289;-71
2022/02/02 11:28:27;;;;;;;6.47;1.80;;;6.30;61.90;;;6.34;62.07;100249.28;5034877;28;20267;-71
2022/02/02 11:31:16;;;;;;;6.20;1.52;;;6.30;57.90;;;6.38;62.46;100242.53;5034835;28;20547;-69
2022/02/02 11:33:56;;;;;;;15.70;3.15;;;6.30;63.00;;;6.35;62.80;100261.69;5034782;28;20259;-70
2022/02/02 11:36:31;;;;;;;13.27;2.63;;;6.30;61.90;;;6.32;62.29;100250.50;5034185;28;20749;-69
2022/02/02 11:39:03;;;;;;;8.98;1.60;;;6.30;59.10;;;6.24;61.99;100250.63;5034394;28;20177;-70
2022/02/02 11:41:54;;;;;;;6.30;2.40;;;6.20;55.80;;;6.31;61.50;100268.47;5034374;28;20177;-70
2022/02/02 11:44:42;;;;;;;7.20;2.45;;;6.20;57.20;;;6.20;61.65;100263.59;5034196;28;20584;-69
2022/02/02 11:47:41;;;;;;;12.43;2.00;;;6.20;54.00;;;6.22;62.19;100272.31;5033282;28;20228;-70
2022/02/02 11:50:11;;;;;;;12.52;2.75;;;6.20;55.60;;;6.24;61.47;100274.81;5034247;28;20227;-70
2022/02/02 11:52:43;;;;;;;9.07;2.20;;;6.20;50.30;;;6.18;61.27;100284.44;5034771;28;20184;-71
2022/02/02 11:55:43;;;;;;;11.55;2.92;;;6.20;49.20;;;6.22;61.33;100315.28;5034304;28;20173;-71
2022/02/02 11:58:26;;;;;;;5.63;1.83;;;6.20;49.70;;;6.34;61.92;100307.59;5034475;28;20214;-70
2022/02/02 12:01:04;;;;;;;5.32;2.47;;;6.20;55.10;;;6.22;61.40;100293.78;5034130;28;20257;-70
2022/02/02 12:06:42;;;;;;;5.75;2.20;;;6.20;52.30;;;6.21;61.71;100334.28;5036836;28;20225;-70
2022/02/02 12:09:22;;;;;;;2.33;1.65;;;6.20;51.00;;;6.18;62.19;100362.38;5036023;28;20581;-70
2022/02/02 12:49:46;;;;;;;5.22;1.13;;;6.00;41.70;;;6.11;60.17;100433.97;5033534;28;20223;-71
2022/02/02 12:58:05;;;;;;;2.05;1.25;;;6.10;42.70;;;6.19;59.91;100474.19;5024348;28;20247;-71
2022/02/02 13:00:50;;;;;;;5.78;1.58;;;6.10;39.20;;;6.11;60.24;100464.34;5033607;28;20257;-70
2022/02/02 13:03:19;;;;;;;6.35;1.52;;;6.10;40.40;;;6.21;60.75;100485.56;5033287;28;20269;-71
2022/02/02 13:05:50;;;;;;;3.58;1.50;;;6.10;43.70;;;6.28;60.58;100472.25;5032929;28;20193;-71
2022/02/02 13:08:21;;;;;;;2.92;1.10;;;6.20;44.50;;;6.54;60.44;100470.75;5032685;28;20320;-70
2022/02/02 13:10:51;;;;;;;3.65;1.83;;;6.40;44.30;;;6.77;60.43;100469.81;5033484;28;20692;-70
2022/02/02 13:13:25;;;;;;;3.05;1.50;;;6.60;46.90;;;6.68;60.88;100477.13;5032708;28;20189;-71
2022/02/02 13:16:10;;;;;;;7.20;1.30;;;6.60;47.00;;;6.85;60.65;100492.06;5033010;28;20181;-72
2022/02/02 13:18:41;;;;;;;2.33;1.83;;;6.70;48.50;;;6.94;60.61;100500.84;5032801;28;20169;-70
2022/02/02 13:21:12;;;;;;;5.53;2.50;;;6.80;45.30;;;6.90;60.92;100502.25;5048176;28;20602;-70
2022/02/02 13:23:53;;;;;;;2.97;0.98;;;6.80;47.30;;;7.09;60.81;100515.09;5032429;28;20220;-71
2022/02/02 13:26:29;;;;;;;5.85;1.30;;;6.90;47.70;;;6.91;60.94;100520.91;5032885;28;20216;-70
2022/02/02 13:29:07;;;;;;;4.15;1.25;;;6.90;47.70;;;6.97;60.92;100522.00;5032692;28;20177;-70
2022/02/02 13:31:51;;;;;;;2.95;2.40;;;6.90;46.40;;;6.88;60.42;100523.94;5032777;28;20169;-71
2022/02/02 13:34:29;;;;;;;4.40;2.03;;;6.80;42.90;;;6.85;59.67;100542.31;5033160;28;20646;-70
2022/02/02 13:37:35;;;;;;;2.40;1.10;;;6.80;36.20;;;6.94;58.69;100546.56;5032825;28;20209;-69
2022/02/02 13:43:10;;;;;;;1.38;0.77;;;6.70;28.70;;;6.45;57.93;100574.00;5032952;28;20174;-71
2022/02/02 13:46:18;;;;;;;4.05;1.58;;;6.50;26.70;;;6.57;58.45;100589.69;5032970;28;20194;-71
2022/02/02 13:52:19;;;;;;;6.78;4.40;;;6.40;24.70;;;6.59;58.07;100601.94;5041450;28;20220;-70
2022/02/02 13:55:31;;;;;;;6.53;3.03;;;6.50;28.50;;;6.69;57.66;100613.25;5032412;28;20239;-70
2022/02/02 13:58:32;;;;;;;2.42;1.10;;;6.60;25.70;;;6.69;56.75;100620.47;5032370;28;20202;-70
2022/02/02 14:01:11;;;;;;;2.60;0.90;;;6.60;23.60;;;6.51;51.38;100623.53;5032569;28;20260;-72
2022/02/02 14:03:56;;;;;;;1.48;0.80;;;6.50;10.40;;;6.44;51.45;100636.00;5032333;28;20185;-72
2022/02/02 14:06:38;;;;;;;3.67;1.42;;;6.40;8.90;;;6.42;51.64;100644.28;5033122;28;20296;-73
2022/02/02 14:09:15;;;;;;;5.18;1.23;;;6.40;8.50;;;6.34;51.17;100655.06;5032339;28;20654;-71
2022/02/02 14:26:10;;;;;;;3.33;1.30;;;6.50;7.10;;;6.41;50.33;100698.19;5042419;28;20717;-68
2022/02/02 14:31:27;;;;;;;3.05;1.20;;;6.40;6.30;;;6.40;51.07;100707.28;5035644;28;20189;-67
2022/02/02 14:33:59;;;;;;;4.60;1.27;;;6.40;6.50;;;6.27;51.07;100710.56;5036873;28;20661;-68
2022/02/02 14:36:35;;;;;;;2.53;2.03;;;6.30;6.20;;;6.25;51.98;100723.34;5036082;28;20551;-68
2022/02/02 14:39:13;;;;;;;2.63;1.30;;;6.20;7.20;;;6.20;51.98;100733.78;5036178;28;20185;-68
2022/02/02 14:41:46;;;;;;;2.92;1.00;;;6.20;7.10;;;6.17;51.98;100734.16;5035843;28;20201;-67
2022/02/02 14:44:20;;;;;;;4.55;1.10;;;6.10;7.30;;;6.14;52.14;100741.72;5035887;28;20182;-67
2022/02/02 14:47:12;;;;;;;3.03;1.45;;;6.10;7.40;;;6.13;51.82;100738.19;5035740;28;20218;-68
2022/02/02 14:49:49;;;;;;;6.85;1.40;;;6.10;7.40;;;6.11;52.18;100759.88;5036178;28;20204;-70
2022/02/02 14:52:27;;;;;;;4.47;1.10;;;6.10;7.70;;;6.07;52.32;100768.44;5035985;28;20685;-70
2022/02/02 15:09:33;;;;;;;6.05;1.23;;;6.10;12.60;;;6.05;55.28;100791.97;5036060;28;20207;-68
2022/02/02 15:29:26;;;;;;;5.88;1.20;;;5.40;25.20;;;5.17;60.76;100826.94;5023947;28;20546;-69
2022/02/02 15:31:57;;;;;;;3.78;1.30;;;5.30;31.10;;;5.04;61.11;100849.88;5050467;28;20201;-69
2022/02/02 15:34:39;;;;;;;7.30;2.05;;;5.10;36.30;;;4.91;61.64;100841.50;5035247;28;20173;-69
2022/02/02 15:37:26;;;;;;;6.07;1.98;;;5.00;40.90;;;4.87;62.07;100853.56;5110730;22;20440;-72
2022/02/02 15:40:07;;;;;;;7.50;1.90;;;4.90;45.10;;;4.80;62.36;100866.78;5034918;28;20691;-72
2022/02/02 15:42:46;;;;;;;5.85;2.15;;;4.90;48.20;;;4.70;63.17;100866.09;5036768;28;20181;-74
2022/02/02 15:59:21;;;;;;;8.13;4.72;;;4.50;82.10;;;4.46;65.14;100892.84;5037502;28;20219;-73
2022/02/02 16:04:35;;;;;;;10.55;2.30;;;4.50;89.00;;;4.39;65.42;100914.09;5057088;28;20173;-75
2022/02/02 16:07:06;;;;;;;9.93;2.47;;;4.50;90.00;;;4.46;64.75;100909.75;5058048;28;20207;-72
2022/02/02 16:09:48;;;;;;;7.18;2.65;;;4.50;88.90;;;4.51;64.86;100915.47;5055537;28;20802;-72
2022/02/02 16:12:23;;;;;;;8.18;2.50;;;4.50;87.30;;;4.58;64.73;100924.56;5054080;28;20199;-73